Time;durP1;ratioP1;P1;durP2;ratioP2;P2;SDS_P1;SDS_P2;PMS_P1;PMS_P2;Temp;Humidity;BMP_temperature;BMP_pressure;BME280_temperature;BME280_humidity;BME280_pressure;Samples;Min_cycle;Max_cycle;Signal;HPM_P1;HPM_P2
2020/12/26 00:01:19;;;;;;;15.20;7.00;;;5.90;99.90;;;;;;5032841;28;20212;-82
2020/12/26 00:03:46;;;;;;;12.63;6.07;;;5.90;99.90;;;;;;5023955;28;20181;-82
2020/12/26 00:06:19;;;;;;;14.80;6.00;;;5.90;99.90;;;;;;5029666;28;20188;-82
2020/12/26 00:08:45;;;;;;;16.57;6.23;;;5.90;99.90;;;;;;5028497;28;20181;-82
2020/12/26 00:11:14;;;;;;;16.57;6.37;;;5.90;99.90;;;;;;5029640;28;20185;-83
2020/12/26 00:13:40;;;;;;;17.60;5.97;;;5.90;99.90;;;;;;5029368;28;20265;-82
2020/12/26 00:16:12;;;;;;;13.30;6.40;;;5.90;99.90;;;;;;5028778;28;20280;-82
2020/12/26 00:18:38;;;;;;;15.30;6.20;;;5.90;99.90;;;;;;5024929;28;20213;-83
2020/12/26 00:21:10;;;;;;;15.67;6.80;;;5.90;99.90;;;;;;5038174;28;20177;-82
2020/12/26 00:23:35;;;;;;;16.27;6.53;;;5.90;99.90;;;;;;5027608;28;20183;-82
2020/12/26 00:26:02;;;;;;;16.40;6.30;;;5.80;99.90;;;;;;5046675;28;20193;-82
2020/12/26 00:28:28;;;;;;;16.27;6.70;;;5.90;99.90;;;;;;5025503;28;20672;-82
2020/12/26 00:30:54;;;;;;;16.07;7.10;;;6.00;99.90;;;;;;5025235;28;20232;-82
2020/12/26 00:33:19;;;;;;;12.73;6.70;;;6.00;99.90;;;;;;5029937;28;20571;-83
2020/12/26 00:35:45;;;;;;;17.37;7.50;;;6.10;99.90;;;;;;5031987;28;20193;-82
2020/12/26 00:38:11;;;;;;;15.10;6.80;;;6.10;99.90;;;;;;5030995;28;20209;-82
2020/12/26 00:40:37;;;;;;;16.50;6.90;;;6.10;99.90;;;;;;5030013;28;20238;-82
2020/12/26 00:43:02;;;;;;;14.80;6.80;;;6.00;99.90;;;;;;5014192;28;20299;-82
2020/12/26 00:45:28;;;;;;;13.27;6.50;;;6.00;99.90;;;;;;5028660;28;20288;-81
2020/12/26 00:47:54;;;;;;;14.43;6.90;;;6.10;99.90;;;;;;5029619;28;20693;-82
2020/12/26 00:50:20;;;;;;;13.80;6.17;;;6.20;99.90;;;;;;5016246;28;20255;-82
2020/12/26 00:52:46;;;;;;;19.27;7.00;;;6.20;99.90;;;;;;5048213;28;20210;-82
2020/12/26 00:55:12;;;;;;;15.13;7.10;;;6.20;99.90;;;;;;5035341;28;20267;-82
2020/12/26 00:57:41;;;;;;;18.40;6.40;;;6.30;99.90;;;;;;5029950;28;20217;-82
2020/12/26 01:00:08;;;;;;;16.03;6.50;;;6.30;99.90;;;;;;5030139;28;20217;-81
2020/12/26 01:02:42;;;;;;;17.10;6.73;;;6.30;99.90;;;;;;5032598;28;20182;-80
2020/12/26 01:05:11;;;;;;;16.07;6.57;;;6.20;99.90;;;;;;5016309;28;20185;-81
2020/12/26 01:07:37;;;;;;;16.40;6.50;;;6.30;99.90;;;;;;5025675;28;20319;-81
2020/12/26 01:10:04;;;;;;;16.73;7.17;;;6.40;99.90;;;;;;5032151;28;20189;-81
2020/12/26 01:12:29;;;;;;;13.20;7.00;;;6.40;99.90;;;;;;5032411;28;20277;-80
2020/12/26 01:14:55;;;;;;;15.40;7.27;;;6.40;99.90;;;;;;5030481;28;20784;-81
2020/12/26 01:17:21;;;;;;;14.43;6.97;;;6.40;99.90;;;;;;5032892;28;20300;-80
2020/12/26 01:19:46;;;;;;;16.70;7.27;;;6.40;99.90;;;;;;5028192;28;20248;-81
2020/12/26 01:22:14;;;;;;;16.30;6.77;;;6.40;99.90;;;;;;5031625;28;20190;-81
2020/12/26 01:24:42;;;;;;;16.43;6.93;;;6.40;99.90;;;;;;5027565;28;20170;-81
2020/12/26 01:27:08;;;;;;;14.33;6.90;;;6.30;99.90;;;;;;5029144;28;20175;-80
2020/12/26 01:29:37;;;;;;;12.30;6.83;;;6.20;99.90;;;;;;5045672;28;20287;-82
2020/12/26 01:32:02;;;;;;;15.67;7.30;;;6.20;99.90;;;;;;5031062;28;20271;-81
2020/12/26 01:34:28;;;;;;;15.80;7.10;;;6.20;99.90;;;;;;5027664;28;20695;-81
2020/12/26 01:36:54;;;;;;;12.40;6.30;;;6.20;99.90;;;;;;5036314;28;20181;-81
2020/12/26 01:39:22;;;;;;;18.00;7.17;;;6.20;99.90;;;;;;5028931;28;20210;-81
2020/12/26 01:41:51;;;;;;;13.47;6.30;;;6.20;99.90;;;;;;5048218;28;20181;-81
2020/12/26 01:44:17;;;;;;;14.70;6.20;;;6.20;99.90;;;;;;5028666;28;20177;-81
2020/12/26 01:46:45;;;;;;;14.33;6.07;;;6.20;99.90;;;;;;5029546;28;20277;-81
2020/12/26 01:49:11;;;;;;;14.37;6.43;;;6.30;99.90;;;;;;5038742;28;20232;-81
2020/12/26 01:51:38;;;;;;;15.77;6.40;;;6.30;99.90;;;;;;5028431;28;20187;-81
2020/12/26 01:54:04;;;;;;;14.97;6.40;;;6.30;99.90;;;;;;5017452;28;20189;-81
2020/12/26 01:56:31;;;;;;;18.07;6.83;;;6.10;99.90;;;;;;5023921;28;20196;-81
2020/12/26 01:58:57;;;;;;;18.10;6.50;;;6.10;99.90;;;;;;5031928;28;20208;-81
2020/12/26 02:01:38;;;;;;;15.40;7.03;;;6.10;99.90;;;;;;5021482;28;20212;-81
2020/12/26 02:04:04;;;;;;;15.53;7.10;;;6.20;99.90;;;;;;5027493;28;20650;-81
2020/12/26 02:06:36;;;;;;;14.07;6.97;;;6.20;99.90;;;;;;5033596;28;20181;-81
2020/12/26 02:09:02;;;;;;;15.67;6.87;;;6.20;99.90;;;;;;5041835;28;20223;-80
2020/12/26 02:11:28;;;;;;;18.10;7.33;;;6.20;99.90;;;;;;5020407;28;20206;-81
2020/12/26 02:13:55;;;;;;;14.40;6.87;;;6.20;99.90;;;;;;5031520;28;20182;-80
2020/12/26 02:16:20;;;;;;;15.83;7.00;;;6.10;99.90;;;;;;5031372;28;20285;-80
2020/12/26 02:18:46;;;;;;;13.93;7.43;;;6.00;99.90;;;;;;5029338;28;20284;-81
2020/12/26 02:21:12;;;;;;;15.20;7.53;;;6.10;99.90;;;;;;5027537;28;20190;-81
2020/12/26 02:23:45;;;;;;;16.53;7.60;;;6.10;99.90;;;;;;5032881;28;20188;-81
2020/12/26 02:26:11;;;;;;;15.17;7.37;;;6.10;99.90;;;;;;5031551;28;20661;-81
2020/12/26 02:28:37;;;;;;;16.00;7.40;;;6.20;99.90;;;;;;5029288;28;20582;-81
2020/12/26 02:31:04;;;;;;;16.87;8.03;;;6.20;99.90;;;;;;5024986;28;20190;-80
2020/12/26 02:33:32;;;;;;;13.87;7.60;;;6.30;99.90;;;;;;5027757;28;20194;-80
2020/12/26 02:35:58;;;;;;;15.20;7.60;;;6.20;99.90;;;;;;5040539;28;20619;-81
2020/12/26 02:38:23;;;;;;;15.87;8.23;;;6.20;99.90;;;;;;5030102;28;20223;-81
2020/12/26 02:40:49;;;;;;;19.47;8.30;;;6.20;99.90;;;;;;5025112;28;20189;-81
2020/12/26 02:43:23;;;;;;;17.30;8.53;;;6.20;99.90;;;;;;5047947;28;20182;-80
2020/12/26 02:45:51;;;;;;;16.70;8.73;;;6.00;99.90;;;;;;5045452;28;20179;-81
2020/12/26 02:48:17;;;;;;;16.43;8.07;;;5.90;99.90;;;;;;5012738;28;20190;-81
2020/12/26 02:50:42;;;;;;;15.27;8.30;;;5.90;99.90;;;;;;5030701;28;20235;-81
2020/12/26 02:53:09;;;;;;;19.10;8.57;;;5.80;99.90;;;;;;5022696;28;20214;-82
2020/12/26 02:55:34;;;;;;;15.80;8.10;;;5.90;99.90;;;;;;5030253;28;20202;-82
2020/12/26 02:58:00;;;;;;;16.90;8.40;;;5.90;99.90;;;;;;5032756;28;20281;-81
2020/12/26 03:00:26;;;;;;;14.00;8.27;;;5.80;99.90;;;;;;5027875;28;20186;-81
2020/12/26 03:02:52;;;;;;;17.13;8.43;;;5.70;99.90;;;;;;5032583;28;20242;-81
2020/12/26 03:05:17;;;;;;;18.57;8.87;;;5.70;99.90;;;;;;5029554;28;20181;-81
2020/12/26 03:07:43;;;;;;;16.67;8.70;;;5.70;99.90;;;;;;5031411;28;20661;-82
2020/12/26 03:10:09;;;;;;;17.97;9.03;;;5.70;99.90;;;;;;5026466;28;20749;-81
2020/12/26 03:12:34;;;;;;;18.93;9.03;;;5.70;99.90;;;;;;5029121;28;20558;-81
2020/12/26 03:15:00;;;;;;;16.80;8.00;;;5.70;99.90;;;;;;5029880;28;20202;-81
2020/12/26 03:17:26;;;;;;;18.23;8.53;;;5.60;99.90;;;;;;5044498;28;20653;-82
2020/12/26 03:19:51;;;;;;;18.13;8.33;;;5.70;99.90;;;;;;5026843;28;20178;-81
2020/12/26 03:22:18;;;;;;;17.60;8.30;;;5.60;99.90;;;;;;5033191;28;20211;-81
2020/12/26 03:24:44;;;;;;;14.43;8.37;;;5.60;99.90;;;;;;5029066;28;20235;-81
2020/12/26 03:27:10;;;;;;;18.23;8.00;;;5.60;99.90;;;;;;5028337;28;20591;-81
2020/12/26 03:29:35;;;;;;;17.00;7.60;;;5.50;99.90;;;;;;5026811;28;20188;-80
2020/12/26 03:32:01;;;;;;;15.97;7.97;;;5.40;99.90;;;;;;5028045;28;20202;-81
2020/12/26 03:34:26;;;;;;;13.80;7.33;;;5.40;99.90;;;;;;5015533;28;20181;-81
2020/12/26 03:36:52;;;;;;;14.17;7.80;;;5.50;99.90;;;;;;5025108;28;20204;-82
2020/12/26 03:39:19;;;;;;;16.40;7.77;;;5.50;99.90;;;;;;5030517;28;20206;-81
2020/12/26 03:41:45;;;;;;;16.60;7.53;;;5.50;99.90;;;;;;5029239;28;20182;-81
2020/12/26 03:44:10;;;;;;;17.10;7.57;;;5.60;99.90;;;;;;5029007;28;20175;-81
2020/12/26 03:46:36;;;;;;;18.30;7.50;;;5.50;99.90;;;;;;5024089;28;20563;-81
2020/12/26 03:49:01;;;;;;;15.67;6.73;;;5.50;99.90;;;;;;5027737;28;20264;-81
2020/12/26 03:51:27;;;;;;;18.90;7.73;;;5.50;99.90;;;;;;5014396;28;20304;-81
2020/12/26 03:53:53;;;;;;;16.20;7.73;;;5.60;99.90;;;;;;5032049;28;20676;-81
2020/12/26 03:56:19;;;;;;;14.97;7.43;;;5.50;99.90;;;;;;5026769;28;20194;-81
2020/12/26 03:58:45;;;;;;;20.53;8.90;;;5.50;99.90;;;;;;5025105;28;20433;-81
2020/12/26 04:01:12;;;;;;;17.97;7.27;;;5.30;99.90;;;;;;5025871;28;20783;-81
2020/12/26 04:03:38;;;;;;;18.90;7.00;;;5.40;99.90;;;;;;5017822;28;20254;-81
2020/12/26 04:06:03;;;;;;;16.67;6.97;;;5.30;99.90;;;;;;5027823;28;20643;-80
2020/12/26 04:08:30;;;;;;;16.20;6.53;;;5.30;99.90;;;;;;5027198;28;20276;-80
2020/12/26 04:10:56;;;;;;;18.60;7.10;;;5.40;99.90;;;;;;5032766;28;20689;-81
2020/12/26 04:13:22;;;;;;;17.93;7.03;;;5.50;99.90;;;;;;5040113;28;20194;-81
2020/12/26 04:15:47;;;;;;;16.77;7.77;;;5.50;99.90;;;;;;5023804;28;20213;-82
2020/12/26 04:18:13;;;;;;;19.97;8.13;;;5.40;99.90;;;;;;5026567;28;20683;-80
2020/12/26 04:20:38;;;;;;;17.93;8.03;;;5.30;99.90;;;;;;5027543;28;20186;-81
2020/12/26 04:23:04;;;;;;;19.73;8.63;;;5.30;99.90;;;;;;5023364;28;20200;-80
2020/12/26 04:25:30;;;;;;;20.37;8.53;;;5.30;99.90;;;;;;5026253;28;20431;-80
2020/12/26 04:27:56;;;;;;;20.93;8.70;;;5.30;99.90;;;;;;5051496;28;20189;-81
2020/12/26 04:30:23;;;;;;;19.87;7.97;;;5.30;99.90;;;;;;5034444;28;20198;-81
2020/12/26 04:32:49;;;;;;;19.53;8.10;;;5.20;99.90;;;;;;5029776;28;20185;-80
2020/12/26 04:35:19;;;;;;;22.73;8.13;;;5.10;99.90;;;;;;5038319;28;20260;-81
2020/12/26 04:37:45;;;;;;;22.07;8.80;;;5.00;99.90;;;;;;5034250;28;20299;-81
2020/12/26 04:40:14;;;;;;;18.13;8.17;;;5.00;99.90;;;;;;5047745;28;20189;-81
2020/12/26 04:42:41;;;;;;;22.13;9.13;;;5.00;99.90;;;;;;5033639;28;20190;-81
2020/12/26 04:45:07;;;;;;;21.90;8.93;;;5.00;99.90;;;;;;5033545;28;20180;-81
2020/12/26 04:47:40;;;;;;;23.13;10.90;;;5.00;99.90;;;;;;5029934;28;20440;-81
2020/12/26 04:50:06;;;;;;;27.17;9.63;;;4.70;99.90;;;;;;5031197;28;20260;-81
2020/12/26 04:52:36;;;;;;;24.30;9.00;;;4.90;99.90;;;;;;5016983;28;20204;-80
2020/12/26 04:55:05;;;;;;;30.10;9.80;;;5.00;99.90;;;;;;5042386;28;20181;-81
2020/12/26 04:57:34;;;;;;;23.90;8.73;;;5.00;99.90;;;;;;5033448;28;20256;-81
2020/12/26 05:00:03;;;;;;;21.97;8.27;;;5.00;99.90;;;;;;5031283;28;20179;-81
2020/12/26 05:02:35;;;;;;;20.67;8.07;;;5.10;99.90;;;;;;5030741;28;20191;-81
2020/12/26 05:05:04;;;;;;;19.67;7.77;;;4.90;99.90;;;;;;5040061;28;20183;-80
2020/12/26 05:07:34;;;;;;;17.43;7.47;;;4.90;99.90;;;;;;5026443;28;20190;-81
2020/12/26 05:10:00;;;;;;;19.23;7.23;;;4.90;99.90;;;;;;5033442;28;20394;-81
2020/12/26 05:12:26;;;;;;;23.40;7.97;;;4.90;99.90;;;;;;5028346;28;20541;-81
2020/12/26 05:14:52;;;;;;;16.20;6.27;;;4.90;99.90;;;;;;5047374;28;20343;-81
2020/12/26 05:17:20;;;;;;;19.43;6.50;;;4.80;99.90;;;;;;5048896;28;20193;-81
2020/12/26 05:19:48;;;;;;;13.90;5.60;;;4.70;99.90;;;;;;5031732;28;20220;-81
2020/12/26 05:22:18;;;;;;;15.13;5.43;;;4.70;99.90;;;;;;5025007;28;20237;-81
2020/12/26 05:24:51;;;;;;;13.73;5.20;;;4.70;99.90;;;;;;5029211;28;20293;-81
2020/12/26 05:27:16;;;;;;;16.77;5.50;;;4.70;99.90;;;;;;5030328;28;20213;-81
2020/12/26 05:29:42;;;;;;;14.73;4.90;;;4.70;99.90;;;;;;5034909;28;20227;-81
2020/12/26 05:32:13;;;;;;;17.13;5.27;;;4.70;99.90;;;;;;5028439;28;20181;-81
2020/12/26 05:34:39;;;;;;;14.63;4.70;;;4.60;99.90;;;;;;5030164;28;20208;-81
2020/12/26 05:37:06;;;;;;;19.83;5.30;;;4.70;99.90;;;;;;5023052;28;20204;-81
2020/12/26 05:39:36;;;;;;;13.30;4.50;;;4.80;99.90;;;;;;5027918;28;20236;-81
2020/12/26 05:42:03;;;;;;;11.57;4.57;;;4.70;99.90;;;;;;5034175;28;20179;-81
2020/12/26 05:44:31;;;;;;;12.40;4.60;;;4.70;99.90;;;;;;5032145;28;20671;-81
2020/12/26 05:47:05;;;;;;;13.03;4.13;;;4.70;99.90;;;;;;5045518;28;20651;-81
2020/12/26 05:49:35;;;;;;;13.10;4.37;;;4.60;99.90;;;;;;5040088;28;20224;-81
2020/12/26 05:52:06;;;;;;;11.50;3.53;;;4.60;99.90;;;;;;5028005;28;20195;-81
2020/12/26 05:54:32;;;;;;;11.17;3.63;;;4.60;99.90;;;;;;5029784;28;20193;-81
2020/12/26 05:57:15;;;;;;;10.00;3.50;;;4.60;99.90;;;;;;5032096;28;20185;-81
2020/12/26 05:59:45;;;;;;;12.50;3.10;;;4.60;99.90;;;;;;5027960;28;20196;-81
2020/12/26 06:02:29;;;;;;;10.43;3.40;;;4.50;99.90;;;;;;5030498;28;20269;-80
2020/12/26 06:05:03;;;;;;;14.60;3.67;;;4.50;99.90;;;;;;5029354;28;20307;-81
2020/12/26 06:07:34;;;;;;;11.37;3.37;;;4.40;99.90;;;;;;5021609;28;20182;-81
2020/12/26 06:10:02;;;;;;;10.53;3.43;;;4.40;99.90;;;;;;5025970;28;20201;-81
2020/12/26 06:12:29;;;;;;;11.23;4.17;;;4.40;99.90;;;;;;5033980;28;20183;-81
2020/12/26 06:14:56;;;;;;;15.47;3.50;;;4.40;99.90;;;;;;5045004;28;20187;-81
2020/12/26 06:17:24;;;;;;;13.67;4.33;;;4.40;99.90;;;;;;5046015;28;20284;-81
2020/12/26 06:20:09;;;;;;;10.90;3.90;;;4.40;99.90;;;;;;5045263;28;20274;-81
2020/12/26 06:22:50;;;;;;;12.40;4.30;;;4.40;99.90;;;;;;5031448;28;20275;-81
2020/12/26 06:25:18;;;;;;;8.00;3.40;;;4.30;99.90;;;;;;5031192;28;20178;-81
2020/12/26 06:27:51;;;;;;;13.23;4.03;;;4.30;99.90;;;;;;5029204;28;20275;-80
2020/12/26 06:30:21;;;;;;;11.77;4.43;;;4.30;99.90;;;;;;5034605;28;20515;-80
2020/12/26 06:32:49;;;;;;;12.10;4.00;;;4.30;99.90;;;;;;5023869;28;20186;-80
2020/12/26 06:35:16;;;;;;;14.63;4.43;;;4.40;99.90;;;;;;5027522;28;20195;-81
2020/12/26 06:37:42;;;;;;;13.17;4.60;;;4.30;99.90;;;;;;5031361;28;20177;-81
2020/12/26 06:40:23;;;;;;;13.13;4.67;;;4.30;99.90;;;;;;5025329;28;20596;-80
2020/12/26 06:42:49;;;;;;;13.57;5.80;;;4.20;99.90;;;;;;5026202;28;20426;-80
2020/12/26 06:45:34;;;;;;;14.43;6.18;;;4.10;99.90;;;;;;5023892;28;20798;-80
2020/12/26 06:48:00;;;;;;;13.93;5.07;;;4.10;99.90;;;;;;5038405;28;20185;-80
2020/12/26 06:50:28;;;;;;;13.37;4.73;;;4.20;99.90;;;;;;5027804;28;20217;-81
2020/12/26 06:52:53;;;;;;;14.03;5.00;;;4.20;99.90;;;;;;5029646;28;20699;-81
2020/12/26 06:55:36;;;;;;;16.13;5.10;;;4.30;99.90;;;;;;5026562;28;20267;-80
2020/12/26 06:58:02;;;;;;;13.63;5.00;;;4.30;99.90;;;;;;5030067;28;20208;-81
2020/12/26 07:00:29;;;;;;;16.13;5.40;;;4.30;99.90;;;;;;5026980;28;20180;-81
2020/12/26 07:03:39;;;;;;;11.73;5.50;;;4.20;99.90;;;;;;5026908;28;20215;-81
2020/12/26 07:06:05;;;;;;;12.07;5.10;;;4.20;99.90;;;;;;5027314;28;20204;-81
2020/12/26 07:08:33;;;;;;;14.00;4.90;;;4.20;99.90;;;;;;5028489;28;20189;-80
2020/12/26 07:11:01;;;;;;;17.27;5.33;;;4.10;99.90;;;;;;5027164;28;20589;-80
2020/12/26 07:13:42;;;;;;;12.33;4.87;;;4.10;99.90;;;;;;5044857;28;20639;-81
2020/12/26 07:16:45;;;;;;;15.47;5.57;;;4.10;99.90;;;;;;5044011;28;20187;-81
2020/12/26 07:19:19;;;;;;;12.43;5.17;;;4.10;99.90;;;;;;5026505;28;20200;-81
2020/12/26 07:21:52;;;;;;;13.53;4.63;;;4.00;99.90;;;;;;5029109;28;20182;-81
2020/12/26 07:24:23;;;;;;;11.63;5.10;;;4.00;99.90;;;;;;5019411;28;20179;-80
2020/12/26 07:26:50;;;;;;;13.50;5.27;;;3.90;99.90;;;;;;5032739;28;20184;-81
2020/12/26 07:29:26;;;;;;;13.97;6.27;;;3.90;99.90;;;;;;5031521;28;20180;-81
2020/12/26 07:31:52;;;;;;;13.30;5.77;;;4.00;99.90;;;;;;5037790;28;21286;-81
2020/12/26 07:34:38;;;;;;;10.37;5.00;;;4.00;99.90;;;;;;5032380;28;20299;-80
2020/12/26 07:37:05;;;;;;;14.70;5.73;;;3.80;99.90;;;;;;5032415;28;20638;-81
2020/12/26 07:39:30;;;;;;;13.30;5.63;;;3.90;99.90;;;;;;5019479;28;20217;-81
2020/12/26 07:41:56;;;;;;;13.93;5.67;;;3.90;99.90;;;;;;5034670;28;20566;-84
2020/12/26 07:44:31;;;;;;;16.23;5.63;;;3.90;99.90;;;;;;5031020;28;20242;-81
2020/12/26 07:46:57;;;;;;;12.10;5.40;;;3.90;99.90;;;;;;5047786;28;20212;-81
2020/12/26 07:49:24;;;;;;;11.57;5.47;;;3.80;99.90;;;;;;5046935;28;20233;-80
2020/12/26 07:52:00;;;;;;;14.57;5.30;;;3.70;99.90;;;;;;5032464;28;20538;-80
2020/12/26 07:54:26;;;;;;;11.13;5.53;;;3.70;99.90;;;;;;5032312;28;20609;-80
2020/12/26 07:56:56;;;;;;;14.80;5.00;;;3.80;99.90;;;;;;5028122;28;20267;-81
2020/12/26 07:59:23;;;;;;;15.63;5.27;;;3.90;99.90;;;;;;5025057;28;20247;-81
2020/12/26 08:01:53;;;;;;;13.13;4.80;;;3.80;99.90;;;;;;5049188;28;20198;-80
2020/12/26 08:04:19;;;;;;;10.90;5.00;;;3.80;99.90;;;;;;5032461;28;20257;-80
2020/12/26 08:06:47;;;;;;;18.43;5.07;;;3.80;99.90;;;;;;5032065;28;20185;-80
2020/12/26 08:09:17;;;;;;;13.73;5.53;;;3.90;99.90;;;;;;5025016;28;20192;-80
2020/12/26 08:11:43;;;;;;;13.20;5.53;;;3.80;99.90;;;;;;5013515;28;20185;-80
2020/12/26 08:14:11;;;;;;;14.10;5.60;;;3.90;99.90;;;;;;5031592;28;20285;-80
2020/12/26 08:16:37;;;;;;;11.10;4.97;;;3.90;99.90;;;;;;5031545;28;20188;-80
2020/12/26 08:19:04;;;;;;;13.50;5.03;;;4.00;99.90;;;;;;5020223;28;20205;-80
2020/12/26 08:21:31;;;;;;;14.80;5.23;;;3.90;99.90;;;;;;5031548;28;20603;-80
2020/12/26 08:23:59;;;;;;;12.57;4.80;;;4.00;99.90;;;;;;5033330;28;20586;-80
2020/12/26 08:26:29;;;;;;;15.30;5.13;;;4.10;99.90;;;;;;5028504;28;20170;-80
2020/12/26 08:29:00;;;;;;;14.73;5.10;;;4.20;99.90;;;;;;5030869;28;20291;-80
2020/12/26 08:31:29;;;;;;;13.57;5.17;;;4.40;99.90;;;;;;5034501;28;20184;-80
2020/12/26 08:34:07;;;;;;;13.97;5.10;;;4.40;99.90;;;;;;5032069;28;20209;-80
2020/12/26 08:36:38;;;;;;;12.00;4.60;;;4.50;99.90;;;;;;5029805;28;20658;-80
2020/12/26 08:39:07;;;;;;;13.77;5.43;;;4.70;99.90;;;;;;5033387;28;20230;-81
2020/12/26 08:41:33;;;;;;;10.97;4.67;;;4.80;99.90;;;;;;5031739;28;20174;-80
2020/12/26 08:43:59;;;;;;;12.60;4.50;;;4.60;99.90;;;;;;5049067;28;20191;-80
2020/12/26 08:46:25;;;;;;;11.27;5.07;;;4.60;99.90;;;;;;5033430;28;20181;-80
2020/12/26 08:48:55;;;;;;;10.57;4.63;;;4.70;99.90;;;;;;5030347;28;20790;-81
2020/12/26 08:51:26;;;;;;;17.73;5.03;;;4.80;99.90;;;;;;5031797;28;20250;-81
2020/12/26 08:53:53;;;;;;;12.63;5.00;;;4.80;99.90;;;;;;5030426;28;20237;-80
2020/12/26 08:56:35;;;;;;;13.37;5.33;;;4.90;99.90;;;;;;5033433;28;20580;-80
2020/12/26 08:59:01;;;;;;;12.03;5.07;;;5.00;99.90;;;;;;5026518;28;20209;-80
2020/12/26 09:01:27;;;;;;;12.23;4.73;;;5.10;99.90;;;;;;5030016;28;20772;-80
2020/12/26 09:03:56;;;;;;;13.27;4.83;;;5.10;99.90;;;;;;5034233;28;20201;-80
2020/12/26 09:06:42;;;;;;;14.13;5.10;;;5.00;99.90;;;;;;5043739;28;20184;-80
2020/12/26 09:09:19;;;;;;;17.50;5.00;;;5.00;99.90;;;;;;5032617;28;20180;-80
2020/12/26 09:11:47;;;;;;;14.10;5.63;;;5.00;99.90;;;;;;5017435;28;20177;-80
2020/12/26 09:14:20;;;;;;;15.77;5.90;;;5.10;99.90;;;;;;5046217;28;20176;-80
2020/12/26 09:16:47;;;;;;;15.20;5.17;;;5.30;99.90;;;;;;5016611;28;20193;-80
2020/12/26 09:19:13;;;;;;;13.43;5.17;;;5.50;99.90;;;;;;5028115;28;20227;-80
2020/12/26 09:21:38;;;;;;;13.20;5.50;;;5.50;99.90;;;;;;5031080;28;20185;-80
2020/12/26 09:24:18;;;;;;;13.63;4.70;;;5.70;99.90;;;;;;5031077;28;20192;-80
2020/12/26 09:26:45;;;;;;;14.27;4.80;;;5.80;99.90;;;;;;5035579;28;20258;-80
2020/12/26 09:29:21;;;;;;;12.60;4.57;;;5.80;99.90;;;;;;5033162;28;20357;-80
2020/12/26 09:31:47;;;;;;;11.60;4.80;;;5.90;99.90;;;;;;5031723;28;20556;-80
2020/12/26 09:34:13;;;;;;;16.37;5.83;;;6.00;99.90;;;;;;5031205;28;20183;-80
2020/12/26 09:36:39;;;;;;;13.20;4.93;;;6.10;99.90;;;;;;5031666;28;20267;-80
2020/12/26 09:39:05;;;;;;;16.27;5.40;;;5.90;99.90;;;;;;5032041;28;20669;-80
2020/12/26 09:41:42;;;;;;;16.70;6.07;;;5.80;99.90;;;;;;5033206;28;20176;-80
2020/12/26 09:44:07;;;;;;;18.23;6.57;;;5.70;99.90;;;;;;5045571;28;20186;-80
2020/12/26 09:46:33;;;;;;;18.63;6.73;;;5.70;99.90;;;;;;5026669;28;20529;-80
2020/12/26 09:48:59;;;;;;;19.37;7.00;;;5.90;99.90;;;;;;5032119;28;20198;-80
2020/12/26 09:51:24;;;;;;;18.37;6.83;;;6.00;99.90;;;;;;5042141;28;20182;-80
2020/12/26 09:53:50;;;;;;;20.07;7.83;;;6.10;99.90;;;;;;5028984;28;20616;-79
2020/12/26 09:56:16;;;;;;;18.83;7.77;;;6.20;99.90;;;;;;5017351;28;20173;-79
2020/12/26 09:58:43;;;;;;;20.03;8.07;;;6.30;99.90;;;;;;5029080;28;20625;-79
2020/12/26 10:01:20;;;;;;;21.23;8.33;;;6.30;99.90;;;;;;5031937;28;20178;-81
2020/12/26 10:03:48;;;;;;;20.03;8.33;;;6.40;99.90;;;;;;5026548;28;20209;-79
2020/12/26 10:06:15;;;;;;;19.07;8.50;;;6.50;99.90;;;;;;5031529;28;20196;-79
2020/12/26 10:08:45;;;;;;;22.97;9.03;;;6.70;99.90;;;;;;5017776;28;20190;-80
2020/12/26 10:11:11;;;;;;;20.00;8.23;;;6.80;99.90;;;;;;5045862;28;20193;-80
2020/12/26 10:13:37;;;;;;;21.43;8.07;;;6.90;99.90;;;;;;5025786;28;20559;-80
2020/12/26 10:16:04;;;;;;;23.93;8.47;;;6.90;99.90;;;;;;5026816;28;20196;-79
2020/12/26 10:18:29;;;;;;;16.87;7.13;;;6.90;99.90;;;;;;5016075;28;20203;-80
2020/12/26 10:20:55;;;;;;;14.70;6.60;;;6.80;99.90;;;;;;5043846;28;20259;-80
2020/12/26 10:23:21;;;;;;;18.97;7.30;;;6.60;99.90;;;;;;5043381;28;20232;-79
2020/12/26 10:25:47;;;;;;;17.40;7.13;;;6.60;99.90;;;;;;5026248;28;20534;-79
2020/12/26 10:28:12;;;;;;;17.73;7.37;;;6.60;99.90;;;;;;5031565;28;20185;-79
2020/12/26 10:30:38;;;;;;;19.33;7.60;;;6.50;99.90;;;;;;5027597;28;20658;-79
2020/12/26 10:33:04;;;;;;;18.47;7.63;;;6.60;99.90;;;;;;5031883;28;20235;-79
2020/12/26 10:35:29;;;;;;;18.77;6.60;;;6.60;99.90;;;;;;5029065;28;20223;-79
2020/12/26 10:37:55;;;;;;;18.43;7.47;;;6.50;99.90;;;;;;5029741;28;20213;-79
2020/12/26 10:40:21;;;;;;;22.17;7.97;;;6.50;99.90;;;;;;5029261;28;20536;-79
2020/12/26 10:42:46;;;;;;;15.97;7.37;;;6.50;99.90;;;;;;5029215;28;20190;-79
2020/12/26 10:45:12;;;;;;;18.10;7.27;;;6.50;99.90;;;;;;5032970;28;20187;-79
2020/12/26 10:47:37;;;;;;;17.20;7.30;;;6.50;99.90;;;;;;5033506;28;20292;-79
2020/12/26 10:50:03;;;;;;;17.97;7.57;;;6.60;99.90;;;;;;5028310;28;20566;-80
2020/12/26 10:52:32;;;;;;;17.90;7.10;;;6.70;99.90;;;;;;5009876;28;20182;-79
2020/12/26 10:54:58;;;;;;;19.17;7.27;;;6.80;99.90;;;;;;5029743;28;20278;-80
2020/12/26 10:57:23;;;;;;;16.40;7.00;;;6.80;99.90;;;;;;5026246;28;20272;-80
2020/12/26 10:59:49;;;;;;;16.27;6.50;;;6.90;99.90;;;;;;5030320;28;20242;-81
2020/12/26 11:02:15;;;;;;;19.57;7.27;;;7.10;99.90;;;;;;5043100;28;20214;-81
2020/12/26 11:04:40;;;;;;;17.10;6.60;;;7.10;99.90;;;;;;5026472;28;20176;-80
2020/12/26 11:07:06;;;;;;;14.80;6.23;;;7.30;99.90;;;;;;5033605;28;20168;-79
2020/12/26 11:09:32;;;;;;;18.33;6.33;;;7.50;99.90;;;;;;5029664;28;20200;-83
2020/12/26 11:11:57;;;;;;;13.93;5.00;;;7.70;99.90;;;;;;5022181;28;20181;-80
2020/12/26 11:14:23;;;;;;;15.20;4.77;;;7.70;99.90;;;;;;5029902;28;20195;-81
2020/12/26 11:16:50;;;;;;;12.07;5.00;;;7.70;99.90;;;;;;5028765;28;20190;-82
2020/12/26 11:19:16;;;;;;;16.63;4.97;;;7.80;99.90;;;;;;5024136;28;20210;-80
2020/12/26 11:21:42;;;;;;;10.20;4.20;;;7.70;99.90;;;;;;5030995;28;20184;-81
2020/12/26 11:24:09;;;;;;;14.20;4.27;;;7.60;99.90;;;;;;5012021;28;20554;-79
2020/12/26 11:26:35;;;;;;;12.63;4.33;;;7.60;99.90;;;;;;5028567;28;20193;-81
2020/12/26 11:29:01;;;;;;;8.90;3.60;;;7.60;99.90;;;;;;5028263;28;21245;-80
2020/12/26 11:31:27;;;;;;;11.47;3.50;;;7.80;99.90;;;;;;5026558;28;20178;-79
2020/12/26 11:33:53;;;;;;;11.27;3.00;;;7.90;99.90;;;;;;5030362;28;20258;-79
2020/12/26 11:36:20;;;;;;;9.50;2.90;;;7.80;99.90;;;;;;5025450;28;20196;-79
2020/12/26 11:38:46;;;;;;;8.93;3.10;;;7.80;99.90;;;;;;5042115;28;20201;-79
2020/12/26 11:41:22;;;;;;;13.90;3.00;;;7.70;99.90;;;;;;5031455;28;20264;-80
2020/12/26 11:43:47;;;;;;;7.23;2.70;;;7.70;99.90;;;;;;5027581;28;20192;-79
2020/12/26 11:46:14;;;;;;;8.67;2.30;;;7.50;99.90;;;;;;5033433;28;20184;-79
2020/12/26 11:48:39;;;;;;;8.13;2.57;;;7.70;99.90;;;;;;5026454;28;20193;-78
2020/12/26 11:51:06;;;;;;;5.27;2.27;;;7.70;99.90;;;;;;5043299;28;20237;-80
2020/12/26 11:53:32;;;;;;;7.37;2.90;;;7.70;99.90;;;;;;5031410;28;20610;-80
2020/12/26 11:55:58;;;;;;;7.70;3.17;;;7.80;99.90;;;;;;5010843;28;20189;-79
2020/12/26 11:58:24;;;;;;;18.33;3.30;;;7.90;99.90;;;;;;5030306;28;20195;-79
2020/12/26 12:00:53;;;;;;;8.23;2.50;;;7.80;99.90;;;;;;5030617;28;20180;-79
2020/12/26 12:03:19;;;;;;;4.03;2.00;;;7.90;99.90;;;;;;5026806;28;20198;-79
2020/12/26 12:05:45;;;;;;;8.00;2.73;;;7.90;99.90;;;;;;5045268;28;20196;-80
2020/12/26 12:08:11;;;;;;;7.27;2.60;;;8.00;99.90;;;;;;5025214;28;20188;-80
2020/12/26 12:10:36;;;;;;;8.77;2.80;;;8.00;99.90;;;;;;5030818;28;20551;-81
2020/12/26 12:13:03;;;;;;;9.17;3.30;;;8.10;99.90;;;;;;5030093;28;20197;-81
2020/12/26 12:15:28;;;;;;;8.07;2.50;;;8.20;99.90;;;;;;5024566;28;20207;-80
2020/12/26 12:17:54;;;;;;;7.17;3.10;;;8.30;99.90;;;;;;5020506;28;20192;-80
2020/12/26 12:20:19;;;;;;;5.10;2.50;;;8.30;99.90;;;;;;5024751;28;20205;-80
2020/12/26 12:22:45;;;;;;;5.57;2.83;;;8.20;99.90;;;;;;5034343;28;20181;-80
2020/12/26 12:25:11;;;;;;;8.90;2.80;;;8.10;99.90;;;;;;5018597;28;20196;-81
2020/12/26 12:27:36;;;;;;;10.23;2.50;;;8.20;99.90;;;;;;5032353;28;20217;-80
2020/12/26 12:30:03;;;;;;;8.03;2.03;;;8.10;99.90;;;;;;5033933;28;20211;-80
2020/12/26 12:32:28;;;;;;;6.03;2.30;;;8.10;99.90;;;;;;5018660;28;20205;-80
2020/12/26 12:34:54;;;;;;;6.77;2.83;;;8.10;99.90;;;;;;5020452;28;20227;-80
2020/12/26 12:37:19;;;;;;;6.67;2.43;;;8.30;99.90;;;;;;5034002;28;20229;-79
2020/12/26 12:39:45;;;;;;;8.27;2.57;;;8.20;99.90;;;;;;5038604;28;20251;-79
2020/12/26 12:42:11;;;;;;;8.10;2.33;;;8.30;99.90;;;;;;5018486;28;20203;-79
2020/12/26 12:44:36;;;;;;;7.60;2.57;;;8.20;99.90;;;;;;5017982;28;20193;-79
2020/12/26 12:47:02;;;;;;;6.17;2.27;;;8.20;99.90;;;;;;5024446;28;20194;-80
2020/12/26 12:49:28;;;;;;;21.20;12.37;;;8.20;99.90;;;;;;5021343;28;20247;-79
2020/12/26 12:51:54;;;;;;;23.33;11.20;;;8.20;99.90;;;;;;5040165;28;20181;-79